sensor_id;sensor_type;location;lat;lon;timestamp;temperature;humidity
51035;DHT22;37062;52.546;13.230;2023-07-09T00:01:27;22.00;99.90
51035;DHT22;37062;52.546;13.230;2023-07-09T00:03:55;22.00;99.90
51035;DHT22;37062;52.546;13.230;2023-07-09T00:06:24;22.00;99.90
51035;DHT22;37062;52.546;13.230;2023-07-09T00:08:52;21.90;99.90
51035;DHT22;37062;52.546;13.230;2023-07-09T00:11:20;21.90;99.90
51035;DHT22;37062;52.546;13.230;2023-07-09T00:13:48;21.90;99.90
51035;DHT22;37062;52.546;13.230;2023-07-09T00:16:21;21.90;99.90
51035;DHT22;37062;52.546;13.230;2023-07-09T00:18:52;21.90;99.90
51035;DHT22;37062;52.546;13.230;2023-07-09T00:21:22;21.90;99.90
51035;DHT22;37062;52.546;13.230;2023-07-09T00:23:51;21.90;99.90
51035;DHT22;37062;52.546;13.230;2023-07-09T00:26:19;21.90;99.90
51035;DHT22;37062;52.546;13.230;2023-07-09T00:28:50;21.90;99.90
51035;DHT22;37062;52.546;13.230;2023-07-09T00:31:18;21.90;99.90
51035;DHT22;37062;52.546;13.230;2023-07-09T00:33:48;21.90;99.90
51035;DHT22;37062;52.546;13.230;2023-07-09T00:36:20;21.80;99.90
51035;DHT22;37062;52.546;13.230;2023-07-09T00:38:50;21.80;99.90
51035;DHT22;37062;52.546;13.230;2023-07-09T00:41:20;21.80;99.90
51035;DHT22;37062;52.546;13.230;2023-07-09T00:43:50;21.80;99.90
51035;DHT22;37062;52.546;13.230;2023-07-09T00:49:32;21.80;99.90
51035;DHT22;37062;52.546;13.230;2023-07-09T00:52:11;21.80;99.90
51035;DHT22;37062;52.546;13.230;2023-07-09T00:54:45;21.80;99.90
51035;DHT22;37062;52.546;13.230;2023-07-09T00:57:16;22.00;99.90
51035;DHT22;37062;52.546;13.230;2023-07-09T00:59:48;22.00;99.90
51035;DHT22;37062;52.546;13.230;2023-07-09T01:02:18;22.00;99.90
51035;DHT22;37062;52.546;13.230;2023-07-09T01:04:56;21.90;99.90
51035;DHT22;37062;52.546;13.230;2023-07-09T01:07:31;21.90;99.90
51035;DHT22;37062;52.546;13.230;2023-07-09T01:09:59;21.80;99.90
51035;DHT22;37062;52.546;13.230;2023-07-09T01:12:29;21.80;99.90
51035;DHT22;37062;52.546;13.230;2023-07-09T01:14:59;21.70;99.90
51035;DHT22;37062;52.546;13.230;2023-07-09T01:17:28;21.70;99.90
51035;DHT22;37062;52.546;13.230;2023-07-09T01:19:57;21.60;99.90
51035;DHT22;37062;52.546;13.230;2023-07-09T01:22:26;21.50;99.90
51035;DHT22;37062;52.546;13.230;2023-07-09T01:25:00;21.40;99.90
51035;DHT22;37062;52.546;13.230;2023-07-09T01:27:32;21.40;99.90
51035;DHT22;37062;52.546;13.230;2023-07-09T01:30:05;21.40;99.90
51035;DHT22;37062;52.546;13.230;2023-07-09T01:32:34;21.30;99.90
51035;DHT22;37062;52.546;13.230;2023-07-09T01:35:04;21.20;99.90
51035;DHT22;37062;52.546;13.230;2023-07-09T01:37:37;21.10;99.90
51035;DHT22;37062;52.546;13.230;2023-07-09T01:40:08;21.10;99.90
51035;DHT22;37062;52.546;13.230;2023-07-09T01:42:56;21.10;99.90
51035;DHT22;37062;52.546;13.230;2023-07-09T01:45:27;21.10;99.90
51035;DHT22;37062;52.546;13.230;2023-07-09T01:47:56;21.10;99.90
51035;DHT22;37062;52.546;13.230;2023-07-09T01:50:25;21.10;99.90
51035;DHT22;37062;52.546;13.230;2023-07-09T01:52:57;21.10;99.90
51035;DHT22;37062;52.546;13.230;2023-07-09T01:55:27;21.00;99.90
51035;DHT22;37062;52.546;13.230;2023-07-09T01:57:57;21.00;99.90
51035;DHT22;37062;52.546;13.230;2023-07-09T02:00:26;21.00;99.90
51035;DHT22;37062;52.546;13.230;2023-07-09T02:02:54;20.90;99.90
51035;DHT22;37062;52.546;13.230;2023-07-09T02:05:25;20.90;99.90
51035;DHT22;37062;52.546;13.230;2023-07-09T02:07:53;20.80;99.90
51035;DHT22;37062;52.546;13.230;2023-07-09T02:10:23;20.70;99.90
51035;DHT22;37062;52.546;13.230;2023-07-09T02:12:52;20.70;99.90
51035;DHT22;37062;52.546;13.230;2023-07-09T02:15:20;20.70;99.90
51035;DHT22;37062;52.546;13.230;2023-07-09T02:17:49;20.60;99.90
51035;DHT22;37062;52.546;13.230;2023-07-09T02:20:19;20.60;99.90
51035;DHT22;37062;52.546;13.230;2023-07-09T02:22:50;20.50;99.90
51035;DHT22;37062;52.546;13.230;2023-07-09T02:25:18;20.50;99.90
51035;DHT22;37062;52.546;13.230;2023-07-09T02:27:48;20.40;99.90
51035;DHT22;37062;52.546;13.230;2023-07-09T02:30:17;20.40;99.90
51035;DHT22;37062;52.546;13.230;2023-07-09T02:32:45;20.40;99.90
51035;DHT22;37062;52.546;13.230;2023-07-09T02:35:14;20.30;99.90
51035;DHT22;37062;52.546;13.230;2023-07-09T02:37:42;20.20;99.90
51035;DHT22;37062;52.546;13.230;2023-07-09T02:40:12;20.20;99.90
51035;DHT22;37062;52.546;13.230;2023-07-09T02:42:40;20.10;99.90
51035;DHT22;37062;52.546;13.230;2023-07-09T02:45:11;20.10;99.90
51035;DHT22;37062;52.546;13.230;2023-07-09T02:47:39;20.10;99.90
51035;DHT22;37062;52.546;13.230;2023-07-09T02:50:08;20.10;99.90
51035;DHT22;37062;52.546;13.230;2023-07-09T02:52:36;20.10;99.90
51035;DHT22;37062;52.546;13.230;2023-07-09T02:55:05;20.10;99.90
51035;DHT22;37062;52.546;13.230;2023-07-09T02:57:33;20.10;99.90
51035;DHT22;37062;52.546;13.230;2023-07-09T03:00:02;20.10;99.90
51035;DHT22;37062;52.546;13.230;2023-07-09T03:02:34;20.10;99.90
51035;DHT22;37062;52.546;13.230;2023-07-09T03:05:03;20.20;99.90
51035;DHT22;37062;52.546;13.230;2023-07-09T03:07:31;20.20;99.90
51035;DHT22;37062;52.546;13.230;2023-07-09T03:09:59;20.10;99.90
51035;DHT22;37062;52.546;13.230;2023-07-09T03:12:27;20.10;99.90
51035;DHT22;37062;52.546;13.230;2023-07-09T03:14:56;20.10;99.90
51035;DHT22;37062;52.546;13.230;2023-07-09T03:17:24;20.10;99.90
51035;DHT22;37062;52.546;13.230;2023-07-09T03:19:54;20.10;99.90
51035;DHT22;37062;52.546;13.230;2023-07-09T03:22:22;20.00;99.90
51035;DHT22;37062;52.546;13.230;2023-07-09T03:24:50;20.00;99.90
51035;DHT22;37062;52.546;13.230;2023-07-09T03:27:19;20.00;99.90
51035;DHT22;37062;52.546;13.230;2023-07-09T03:29:47;20.00;99.90
51035;DHT22;37062;52.546;13.230;2023-07-09T03:32:15;19.90;99.90
51035;DHT22;37062;52.546;13.230;2023-07-09T03:34:44;19.90;99.90
51035;DHT22;37062;52.546;13.230;2023-07-09T03:37:15;19.80;99.90
51035;DHT22;37062;52.546;13.230;2023-07-09T03:39:45;19.90;99.90
51035;DHT22;37062;52.546;13.230;2023-07-09T03:42:13;20.00;99.90
51035;DHT22;37062;52.546;13.230;2023-07-09T03:44:42;20.00;99.90
51035;DHT22;37062;52.546;13.230;2023-07-09T03:47:10;20.00;99.90
51035;DHT22;37062;52.546;13.230;2023-07-09T03:49:38;20.10;99.90
51035;DHT22;37062;52.546;13.230;2023-07-09T03:52:08;20.10;99.90
51035;DHT22;37062;52.546;13.230;2023-07-09T03:54:38;20.00;99.90
51035;DHT22;37062;52.546;13.230;2023-07-09T03:57:06;20.20;99.90
51035;DHT22;37062;52.546;13.230;2023-07-09T03:59:34;20.50;99.90
51035;DHT22;37062;52.546;13.230;2023-07-09T04:02:04;20.70;99.90
51035;DHT22;37062;52.546;13.230;2023-07-09T04:04:34;21.10;99.90
51035;DHT22;37062;52.546;13.230;2023-07-09T04:07:02;21.30;99.90
51035;DHT22;37062;52.546;13.230;2023-07-09T04:09:30;21.50;99.90
51035;DHT22;37062;52.546;13.230;2023-07-09T04:12:00;21.70;99.90
51035;DHT22;37062;52.546;13.230;2023-07-09T04:14:29;22.00;99.90
51035;DHT22;37062;52.546;13.230;2023-07-09T04:16:58;22.30;99.90
51035;DHT22;37062;52.546;13.230;2023-07-09T04:19:26;22.50;99.90
51035;DHT22;37062;52.546;13.230;2023-07-09T04:21:54;22.80;99.90
51035;DHT22;37062;52.546;13.230;2023-07-09T04:24:23;23.00;99.90
51035;DHT22;37062;52.546;13.230;2023-07-09T04:26:51;23.20;99.90
51035;DHT22;37062;52.546;13.230;2023-07-09T04:29:24;23.50;99.90
51035;DHT22;37062;52.546;13.230;2023-07-09T04:31:53;23.80;99.90
51035;DHT22;37062;52.546;13.230;2023-07-09T04:34:21;24.00;99.90
51035;DHT22;37062;52.546;13.230;2023-07-09T04:36:49;24.30;99.90
51035;DHT22;37062;52.546;13.230;2023-07-09T04:39:18;24.40;99.90
51035;DHT22;37062;52.546;13.230;2023-07-09T04:41:47;24.50;99.90
51035;DHT22;37062;52.546;13.230;2023-07-09T04:44:15;24.60;99.90
51035;DHT22;37062;52.546;13.230;2023-07-09T04:46:44;24.60;99.90
51035;DHT22;37062;52.546;13.230;2023-07-09T04:49:12;24.60;99.90
51035;DHT22;37062;52.546;13.230;2023-07-09T04:51:41;24.30;99.90
51035;DHT22;37062;52.546;13.230;2023-07-09T04:54:09;24.10;99.90
51035;DHT22;37062;52.546;13.230;2023-07-09T04:56:37;23.90;99.90
51035;DHT22;37062;52.546;13.230;2023-07-09T04:59:05;23.90;99.90
51035;DHT22;37062;52.546;13.230;2023-07-09T05:01:33;23.80;99.90
51035;DHT22;37062;52.546;13.230;2023-07-09T05:04:04;23.60;99.90
51035;DHT22;37062;52.546;13.230;2023-07-09T05:06:32;23.50;99.90
51035;DHT22;37062;52.546;13.230;2023-07-09T05:09:00;23.60;99.90
51035;DHT22;37062;52.546;13.230;2023-07-09T05:11:30;23.50;99.90
51035;DHT22;37062;52.546;13.230;2023-07-09T05:13:58;23.40;99.90
51035;DHT22;37062;52.546;13.230;2023-07-09T05:16:27;23.50;99.90
51035;DHT22;37062;52.546;13.230;2023-07-09T05:18:55;23.40;99.90
51035;DHT22;37062;52.546;13.230;2023-07-09T05:21:24;23.60;99.90
51035;DHT22;37062;52.546;13.230;2023-07-09T05:23:52;23.70;99.90
51035;DHT22;37062;52.546;13.230;2023-07-09T05:26:21;23.70;99.90
51035;DHT22;37062;52.546;13.230;2023-07-09T05:28:49;23.70;99.90
51035;DHT22;37062;52.546;13.230;2023-07-09T05:31:18;23.70;99.90
51035;DHT22;37062;52.546;13.230;2023-07-09T05:33:46;23.90;99.90
51035;DHT22;37062;52.546;13.230;2023-07-09T05:36:14;24.30;99.90
51035;DHT22;37062;52.546;13.230;2023-07-09T05:38:44;24.70;99.90
51035;DHT22;37062;52.546;13.230;2023-07-09T05:41:13;25.10;99.90
51035;DHT22;37062;52.546;13.230;2023-07-09T05:43:43;25.40;99.90
51035;DHT22;37062;52.546;13.230;2023-07-09T05:46:13;25.50;99.90
51035;DHT22;37062;52.546;13.230;2023-07-09T05:48:41;25.60;99.90
51035;DHT22;37062;52.546;13.230;2023-07-09T05:51:09;25.80;99.90
51035;DHT22;37062;52.546;13.230;2023-07-09T05:53:37;25.80;99.90
51035;DHT22;37062;52.546;13.230;2023-07-09T05:56:07;25.80;99.90
51035;DHT22;37062;52.546;13.230;2023-07-09T05:58:36;25.90;99.90
51035;DHT22;37062;52.546;13.230;2023-07-09T06:01:05;25.90;99.90
51035;DHT22;37062;52.546;13.230;2023-07-09T06:03:33;26.20;99.90
51035;DHT22;37062;52.546;13.230;2023-07-09T06:06:02;26.50;99.90
51035;DHT22;37062;52.546;13.230;2023-07-09T06:08:30;26.90;99.90
51035;DHT22;37062;52.546;13.230;2023-07-09T06:11:01;27.20;99.90
51035;DHT22;37062;52.546;13.230;2023-07-09T06:13:31;27.40;99.90
51035;DHT22;37062;52.546;13.230;2023-07-09T06:16:00;27.70;99.90
51035;DHT22;37062;52.546;13.230;2023-07-09T06:18:29;28.30;99.90
51035;DHT22;37062;52.546;13.230;2023-07-09T06:21:00;28.50;99.90
51035;DHT22;37062;52.546;13.230;2023-07-09T06:23:28;28.70;99.90
51035;DHT22;37062;52.546;13.230;2023-07-09T06:25:57;28.90;99.90
51035;DHT22;37062;52.546;13.230;2023-07-09T06:28:26;28.90;99.90
51035;DHT22;37062;52.546;13.230;2023-07-09T06:30:57;29.10;99.90
51035;DHT22;37062;52.546;13.230;2023-07-09T06:33:27;29.60;99.90
51035;DHT22;37062;52.546;13.230;2023-07-09T06:35:56;30.20;99.90
51035;DHT22;37062;52.546;13.230;2023-07-09T06:38:25;30.40;99.90
51035;DHT22;37062;52.546;13.230;2023-07-09T06:40:54;30.70;99.90
51035;DHT22;37062;52.546;13.230;2023-07-09T06:43:22;31.00;99.90
51035;DHT22;37062;52.546;13.230;2023-07-09T06:45:52;31.20;99.90
51035;DHT22;37062;52.546;13.230;2023-07-09T06:48:23;31.50;99.90
51035;DHT22;37062;52.546;13.230;2023-07-09T06:50:52;31.90;99.90
51035;DHT22;37062;52.546;13.230;2023-07-09T06:53:20;31.90;99.90
51035;DHT22;37062;52.546;13.230;2023-07-09T06:55:49;32.00;99.90
51035;DHT22;37062;52.546;13.230;2023-07-09T06:58:19;31.80;99.90
51035;DHT22;37062;52.546;13.230;2023-07-09T07:00:48;31.70;99.90
51035;DHT22;37062;52.546;13.230;2023-07-09T07:03:17;31.70;99.90
51035;DHT22;37062;52.546;13.230;2023-07-09T07:05:48;31.30;99.90
51035;DHT22;37062;52.546;13.230;2023-07-09T07:08:18;30.80;99.90
51035;DHT22;37062;52.546;13.230;2023-07-09T07:10:48;30.40;99.90
51035;DHT22;37062;52.546;13.230;2023-07-09T07:13:17;30.00;99.90
51035;DHT22;37062;52.546;13.230;2023-07-09T07:15:48;29.80;99.90
51035;DHT22;37062;52.546;13.230;2023-07-09T07:18:17;29.50;99.90
51035;DHT22;37062;52.546;13.230;2023-07-09T07:20:47;29.40;99.90
51035;DHT22;37062;52.546;13.230;2023-07-09T07:23:16;29.50;99.90
51035;DHT22;37062;52.546;13.230;2023-07-09T07:25:45;29.70;99.90
51035;DHT22;37062;52.546;13.230;2023-07-09T07:28:14;29.80;99.90
51035;DHT22;37062;52.546;13.230;2023-07-09T07:30:43;29.90;99.90
51035;DHT22;37062;52.546;13.230;2023-07-09T07:33:13;29.90;99.90
51035;DHT22;37062;52.546;13.230;2023-07-09T07:35:42;30.00;99.90
51035;DHT22;37062;52.546;13.230;2023-07-09T07:38:32;30.20;99.90
51035;DHT22;37062;52.546;13.230;2023-07-09T07:41:00;30.40;99.90
51035;DHT22;37062;52.546;13.230;2023-07-09T07:43:29;30.70;99.90
51035;DHT22;37062;52.546;13.230;2023-07-09T07:45:58;30.70;99.90
51035;DHT22;37062;52.546;13.230;2023-07-09T07:48:26;30.80;99.90
51035;DHT22;37062;52.546;13.230;2023-07-09T07:50:58;30.90;99.90
51035;DHT22;37062;52.546;13.230;2023-07-09T07:53:28;30.90;99.90
51035;DHT22;37062;52.546;13.230;2023-07-09T07:55:59;30.90;99.90
51035;DHT22;37062;52.546;13.230;2023-07-09T07:58:29;31.10;99.90
51035;DHT22;37062;52.546;13.230;2023-07-09T08:00:58;31.60;99.90
51035;DHT22;37062;52.546;13.230;2023-07-09T08:03:26;31.80;99.90
51035;DHT22;37062;52.546;13.230;2023-07-09T08:05:55;32.00;99.90
51035;DHT22;37062;52.546;13.230;2023-07-09T08:08:28;32.20;99.90
51035;DHT22;37062;52.546;13.230;2023-07-09T08:11:02;32.60;99.90
51035;DHT22;37062;52.546;13.230;2023-07-09T08:13:32;33.30;99.90
51035;DHT22;37062;52.546;13.230;2023-07-09T08:16:01;33.80;99.90
51035;DHT22;37062;52.546;13.230;2023-07-09T08:18:30;34.00;99.90
51035;DHT22;37062;52.546;13.230;2023-07-09T08:20:59;34.50;99.90
51035;DHT22;37062;52.546;13.230;2023-07-09T08:23:27;35.00;99.90
51035;DHT22;37062;52.546;13.230;2023-07-09T08:25:57;35.40;99.90
51035;DHT22;37062;52.546;13.230;2023-07-09T08:28:28;36.00;99.90
51035;DHT22;37062;52.546;13.230;2023-07-09T08:30:57;36.00;99.90
51035;DHT22;37062;52.546;13.230;2023-07-09T08:33:25;36.20;99.90
51035;DHT22;37062;52.546;13.230;2023-07-09T08:35:54;36.20;99.90
51035;DHT22;37062;52.546;13.230;2023-07-09T08:38:23;36.60;99.90
51035;DHT22;37062;52.546;13.230;2023-07-09T08:40:56;37.10;99.50
51035;DHT22;37062;52.546;13.230;2023-07-09T08:43:42;37.20;98.80
51035;DHT22;37062;52.546;13.230;2023-07-09T08:46:20;37.60;98.70
51035;DHT22;37062;52.546;13.230;2023-07-09T08:48:50;38.00;98.10
51035;DHT22;37062;52.546;13.230;2023-07-09T08:51:25;38.00;98.20
51035;DHT22;37062;52.546;13.230;2023-07-09T08:53:57;37.90;97.90
51035;DHT22;37062;52.546;13.230;2023-07-09T08:56:26;37.90;96.60
51035;DHT22;37062;52.546;13.230;2023-07-09T08:58:59;37.70;97.40
51035;DHT22;37062;52.546;13.230;2023-07-09T09:01:33;38.00;96.60
51035;DHT22;37062;52.546;13.230;2023-07-09T09:04:05;38.40;96.80
51035;DHT22;37062;52.546;13.230;2023-07-09T09:06:34;38.20;96.60
51035;DHT22;37062;52.546;13.230;2023-07-09T09:09:08;38.10;96.00
51035;DHT22;37062;52.546;13.230;2023-07-09T09:11:43;37.60;95.90
51035;DHT22;37062;52.546;13.230;2023-07-09T09:14:29;37.50;96.50
51035;DHT22;37062;52.546;13.230;2023-07-09T09:16:58;37.30;97.50
51035;DHT22;37062;52.546;13.230;2023-07-09T09:19:29;37.30;96.80
51035;DHT22;37062;52.546;13.230;2023-07-09T09:22:07;37.10;96.30
51035;DHT22;37062;52.546;13.230;2023-07-09T09:24:53;36.70;96.90
51035;DHT22;37062;52.546;13.230;2023-07-09T09:27:23;36.60;95.50
51035;DHT22;37062;52.546;13.230;2023-07-09T09:29:52;35.80;96.00
51035;DHT22;37062;52.546;13.230;2023-07-09T09:32:26;35.50;96.30
51035;DHT22;37062;52.546;13.230;2023-07-09T09:34:54;35.40;96.50
51035;DHT22;37062;52.546;13.230;2023-07-09T09:37:27;35.10;96.00
51035;DHT22;37062;52.546;13.230;2023-07-09T09:39:59;35.00;96.20
51035;DHT22;37062;52.546;13.230;2023-07-09T09:42:30;35.10;96.40
51035;DHT22;37062;52.546;13.230;2023-07-09T09:45:01;35.00;96.40
51035;DHT22;37062;52.546;13.230;2023-07-09T09:47:30;34.90;95.80
51035;DHT22;37062;52.546;13.230;2023-07-09T09:49:58;34.90;96.80
51035;DHT22;37062;52.546;13.230;2023-07-09T09:52:30;35.00;96.10
51035;DHT22;37062;52.546;13.230;2023-07-09T09:55:10;34.90;96.70
51035;DHT22;37062;52.546;13.230;2023-07-09T09:57:39;34.80;96.90
51035;DHT22;37062;52.546;13.230;2023-07-09T10:00:15;34.80;97.10
51035;DHT22;37062;52.546;13.230;2023-07-09T10:02:45;35.10;96.90
51035;DHT22;37062;52.546;13.230;2023-07-09T10:05:14;35.30;96.50
51035;DHT22;37062;52.546;13.230;2023-07-09T10:07:45;35.00;96.40
51035;DHT22;37062;52.546;13.230;2023-07-09T10:10:18;34.70;96.40
51035;DHT22;37062;52.546;13.230;2023-07-09T10:12:50;34.50;97.10
51035;DHT22;37062;52.546;13.230;2023-07-09T10:15:40;34.30;96.50
51035;DHT22;37062;52.546;13.230;2023-07-09T10:18:24;34.20;96.10
51035;DHT22;37062;52.546;13.230;2023-07-09T10:21:04;34.20;97.10
51035;DHT22;37062;52.546;13.230;2023-07-09T10:23:37;34.00;96.60
51035;DHT22;37062;52.546;13.230;2023-07-09T10:26:11;33.60;96.70
51035;DHT22;37062;52.546;13.230;2023-07-09T10:29:07;33.50;97.60
51035;DHT22;37062;52.546;13.230;2023-07-09T10:31:46;33.60;97.20
51035;DHT22;37062;52.546;13.230;2023-07-09T10:34:25;33.70;97.60
51035;DHT22;37062;52.546;13.230;2023-07-09T10:37:30;33.80;97.10
51035;DHT22;37062;52.546;13.230;2023-07-09T10:40:04;33.60;97.70
51035;DHT22;37062;52.546;13.230;2023-07-09T10:42:41;33.50;97.60
51035;DHT22;37062;52.546;13.230;2023-07-09T10:45:15;33.50;97.50
51035;DHT22;37062;52.546;13.230;2023-07-09T10:47:47;33.50;97.50
51035;DHT22;37062;52.546;13.230;2023-07-09T10:50:37;33.40;97.90
51035;DHT22;37062;52.546;13.230;2023-07-09T10:53:12;33.40;98.70
51035;DHT22;37062;52.546;13.230;2023-07-09T10:55:47;33.30;97.90
51035;DHT22;37062;52.546;13.230;2023-07-09T10:58:25;33.20;97.70
51035;DHT22;37062;52.546;13.230;2023-07-09T11:00:56;33.30;97.60
51035;DHT22;37062;52.546;13.230;2023-07-09T11:03:35;33.40;97.70
51035;DHT22;37062;52.546;13.230;2023-07-09T11:06:14;33.20;97.70
51035;DHT22;37062;52.546;13.230;2023-07-09T11:08:45;33.40;98.10
51035;DHT22;37062;52.546;13.230;2023-07-09T11:11:19;33.20;97.80
51035;DHT22;37062;52.546;13.230;2023-07-09T11:13:54;33.10;97.90
51035;DHT22;37062;52.546;13.230;2023-07-09T11:16:28;33.20;98.10
51035;DHT22;37062;52.546;13.230;2023-07-09T11:19:02;33.20;98.10
51035;DHT22;37062;52.546;13.230;2023-07-09T11:21:30;33.10;98.00
51035;DHT22;37062;52.546;13.230;2023-07-09T11:24:00;33.00;98.50
51035;DHT22;37062;52.546;13.230;2023-07-09T11:26:30;33.10;98.20
51035;DHT22;37062;52.546;13.230;2023-07-09T11:29:14;33.10;97.90
51035;DHT22;37062;52.546;13.230;2023-07-09T11:31:44;33.10;97.20
51035;DHT22;37062;52.546;13.230;2023-07-09T11:34:18;33.00;97.50
51035;DHT22;37062;52.546;13.230;2023-07-09T11:36:50;32.80;97.00
51035;DHT22;37062;52.546;13.230;2023-07-09T11:39:20;32.70;97.90
51035;DHT22;37062;52.546;13.230;2023-07-09T11:41:49;32.80;97.60
51035;DHT22;37062;52.546;13.230;2023-07-09T11:44:19;32.90;97.40
51035;DHT22;37062;52.546;13.230;2023-07-09T11:46:58;32.90;97.70
51035;DHT22;37062;52.546;13.230;2023-07-09T11:49:39;33.20;97.70
51035;DHT22;37062;52.546;13.230;2023-07-09T11:52:13;33.30;97.60
51035;DHT22;37062;52.546;13.230;2023-07-09T11:54:42;33.40;98.10
51035;DHT22;37062;52.546;13.230;2023-07-09T11:57:12;33.50;97.50
51035;DHT22;37062;52.546;13.230;2023-07-09T11:59:42;33.60;97.60
51035;DHT22;37062;52.546;13.230;2023-07-09T12:02:16;33.80;97.50
51035;DHT22;37062;52.546;13.230;2023-07-09T12:04:49;33.90;97.20
51035;DHT22;37062;52.546;13.230;2023-07-09T12:07:20;34.00;97.20
51035;DHT22;37062;52.546;13.230;2023-07-09T12:09:50;34.00;97.50
51035;DHT22;37062;52.546;13.230;2023-07-09T12:12:21;33.90;97.70
51035;DHT22;37062;52.546;13.230;2023-07-09T12:14:49;33.80;97.50
51035;DHT22;37062;52.546;13.230;2023-07-09T12:17:18;33.60;97.10
51035;DHT22;37062;52.546;13.230;2023-07-09T12:19:51;33.20;97.40
51035;DHT22;37062;52.546;13.230;2023-07-09T12:22:21;33.10;97.90
51035;DHT22;37062;52.546;13.230;2023-07-09T12:24:50;33.00;98.60
51035;DHT22;37062;52.546;13.230;2023-07-09T12:27:23;32.90;98.90
51035;DHT22;37062;52.546;13.230;2023-07-09T12:29:53;32.80;98.80
51035;DHT22;37062;52.546;13.230;2023-07-09T12:32:22;32.70;98.30
51035;DHT22;37062;52.546;13.230;2023-07-09T12:34:56;32.80;98.40
51035;DHT22;37062;52.546;13.230;2023-07-09T12:37:26;32.80;98.60
51035;DHT22;37062;52.546;13.230;2023-07-09T12:39:59;33.00;98.20
51035;DHT22;37062;52.546;13.230;2023-07-09T12:42:31;32.90;97.50
51035;DHT22;37062;52.546;13.230;2023-07-09T12:45:01;32.90;97.70
51035;DHT22;37062;52.546;13.230;2023-07-09T12:47:29;33.10;97.90
51035;DHT22;37062;52.546;13.230;2023-07-09T12:50:14;33.20;97.80
51035;DHT22;37062;52.546;13.230;2023-07-09T12:52:46;33.20;98.70
51035;DHT22;37062;52.546;13.230;2023-07-09T12:55:22;33.20;98.60
51035;DHT22;37062;52.546;13.230;2023-07-09T12:57:51;33.20;99.10
51035;DHT22;37062;52.546;13.230;2023-07-09T13:00:20;33.10;97.80
51035;DHT22;37062;52.546;13.230;2023-07-09T13:02:54;33.00;97.50
51035;DHT22;37062;52.546;13.230;2023-07-09T13:05:25;33.00;97.40
51035;DHT22;37062;52.546;13.230;2023-07-09T13:07:58;33.00;98.00
51035;DHT22;37062;52.546;13.230;2023-07-09T13:10:28;33.00;97.30
51035;DHT22;37062;52.546;13.230;2023-07-09T13:13:02;33.10;97.60
51035;DHT22;37062;52.546;13.230;2023-07-09T13:15:38;33.10;97.60
51035;DHT22;37062;52.546;13.230;2023-07-09T13:18:09;33.20;98.80
51035;DHT22;37062;52.546;13.230;2023-07-09T13:20:40;33.10;98.10
51035;DHT22;37062;52.546;13.230;2023-07-09T13:23:10;33.10;98.20
51035;DHT22;37062;52.546;13.230;2023-07-09T13:25:39;33.20;98.70
51035;DHT22;37062;52.546;13.230;2023-07-09T13:28:19;33.20;98.50
51035;DHT22;37062;52.546;13.230;2023-07-09T13:30:48;33.10;97.80
51035;DHT22;37062;52.546;13.230;2023-07-09T13:33:19;33.10;98.10
51035;DHT22;37062;52.546;13.230;2023-07-09T13:35:51;33.10;98.60
51035;DHT22;37062;52.546;13.230;2023-07-09T13:38:22;33.10;97.80
51035;DHT22;37062;52.546;13.230;2023-07-09T13:40:54;33.00;97.60
51035;DHT22;37062;52.546;13.230;2023-07-09T13:43:29;32.90;97.70
51035;DHT22;37062;52.546;13.230;2023-07-09T13:45:58;32.80;97.40
51035;DHT22;37062;52.546;13.230;2023-07-09T13:48:27;32.80;98.40
51035;DHT22;37062;52.546;13.230;2023-07-09T13:50:58;32.80;98.50
51035;DHT22;37062;52.546;13.230;2023-07-09T13:53:29;32.90;98.70
51035;DHT22;37062;52.546;13.230;2023-07-09T13:55:58;32.90;98.20
51035;DHT22;37062;52.546;13.230;2023-07-09T13:58:27;33.00;98.20
51035;DHT22;37062;52.546;13.230;2023-07-09T14:00:58;33.10;98.00
51035;DHT22;37062;52.546;13.230;2023-07-09T14:03:33;33.00;97.80
51035;DHT22;37062;52.546;13.230;2023-07-09T14:06:04;33.10;98.60
51035;DHT22;37062;52.546;13.230;2023-07-09T14:08:32;33.20;98.20
51035;DHT22;37062;52.546;13.230;2023-07-09T14:11:00;33.20;97.80
51035;DHT22;37062;52.546;13.230;2023-07-09T14:13:30;33.20;98.20
51035;DHT22;37062;52.546;13.230;2023-07-09T14:16:00;33.20;97.60
51035;DHT22;37062;52.546;13.230;2023-07-09T14:18:29;33.10;97.10
51035;DHT22;37062;52.546;13.230;2023-07-09T14:20:58;33.00;97.40
51035;DHT22;37062;52.546;13.230;2023-07-09T14:23:28;33.10;97.70
51035;DHT22;37062;52.546;13.230;2023-07-09T14:25:57;32.90;97.40
51035;DHT22;37062;52.546;13.230;2023-07-09T14:28:25;33.00;98.10
51035;DHT22;37062;52.546;13.230;2023-07-09T14:30:53;33.20;98.10
51035;DHT22;37062;52.546;13.230;2023-07-09T14:33:22;33.20;97.70
51035;DHT22;37062;52.546;13.230;2023-07-09T14:35:50;33.20;97.50
51035;DHT22;37062;52.546;13.230;2023-07-09T14:38:20;33.20;97.40
51035;DHT22;37062;52.546;13.230;2023-07-09T14:40:54;33.00;97.40
51035;DHT22;37062;52.546;13.230;2023-07-09T14:43:23;32.90;98.00
51035;DHT22;37062;52.546;13.230;2023-07-09T14:45:51;33.00;98.50
51035;DHT22;37062;52.546;13.230;2023-07-09T14:48:20;33.10;98.60
51035;DHT22;37062;52.546;13.230;2023-07-09T14:50:49;33.10;97.80
51035;DHT22;37062;52.546;13.230;2023-07-09T14:53:21;33.20;97.80
51035;DHT22;37062;52.546;13.230;2023-07-09T14:55:53;33.10;98.00
51035;DHT22;37062;52.546;13.230;2023-07-09T14:58:23;33.10;98.30
51035;DHT22;37062;52.546;13.230;2023-07-09T15:00:51;33.10;98.10
51035;DHT22;37062;52.546;13.230;2023-07-09T15:03:22;33.20;98.20
51035;DHT22;37062;52.546;13.230;2023-07-09T15:05:51;33.10;97.80
51035;DHT22;37062;52.546;13.230;2023-07-09T15:08:23;33.00;96.80
51035;DHT22;37062;52.546;13.230;2023-07-09T15:10:54;33.00;97.10
51035;DHT22;37062;52.546;13.230;2023-07-09T15:13:29;33.00;97.00
51035;DHT22;37062;52.546;13.230;2023-07-09T15:15:58;33.00;97.70
51035;DHT22;37062;52.546;13.230;2023-07-09T15:18:26;33.10;97.40
51035;DHT22;37062;52.546;13.230;2023-07-09T15:20:56;33.00;97.30
51035;DHT22;37062;52.546;13.230;2023-07-09T15:23:26;33.00;97.10
51035;DHT22;37062;52.546;13.230;2023-07-09T15:25:56;33.10;97.40
51035;DHT22;37062;52.546;13.230;2023-07-09T15:28:25;33.10;98.20
51035;DHT22;37062;52.546;13.230;2023-07-09T15:30:53;33.00;97.70
51035;DHT22;37062;52.546;13.230;2023-07-09T15:33:22;33.00;97.70
51035;DHT22;37062;52.546;13.230;2023-07-09T15:35:50;32.90;98.40
51035;DHT22;37062;52.546;13.230;2023-07-09T15:38:36;32.90;98.30
51035;DHT22;37062;52.546;13.230;2023-07-09T15:41:11;32.80;97.90